createdAt,value
2022-08-23T00:00:51.809Z,97672.63
2022-08-23T00:05:54.241Z,97673.94
2022-08-23T00:10:55.515Z,97680.59
2022-08-23T00:15:56.785Z,97673.63
2022-08-23T00:20:58.024Z,97677.16
2022-08-23T00:25:59.570Z,97676.78
2022-08-23T00:31:00.839Z,97678.41
2022-08-23T00:36:02.119Z,97683.19
2022-08-23T00:41:03.410Z,97677.25
2022-08-23T00:46:23.514Z,97676.25
2022-08-23T00:51:24.797Z,97674.78
2022-08-23T00:56:26.067Z,97673.56
2022-08-23T01:01:29.152Z,97676.63
2022-08-23T01:06:30.455Z,97684.53
2022-08-23T01:11:33.177Z,97678.94
2022-08-23T01:16:34.563Z,97675.47
2022-08-23T01:21:36.579Z,97676.31
2022-08-23T01:26:42.510Z,97689.19
2022-08-23T01:31:43.755Z,97691.47
2022-08-23T01:36:45.022Z,97685.81
2022-08-23T01:41:46.278Z,97688.44
2022-08-23T01:46:47.576Z,97696.81
2022-08-23T01:51:48.842Z,97690.19
2022-08-23T01:56:50.117Z,97696.09
2022-08-23T02:01:51.422Z,97682.47
2022-08-23T02:06:52.738Z,97683.94
2022-08-23T02:11:54.789Z,97682.66
2022-08-23T02:17:03.983Z,97694.84
2022-08-23T02:22:06.014Z,97685.41
2022-08-23T02:27:07.260Z,97689.16
2022-08-23T02:32:09.703Z,97701.88
2022-08-23T02:37:11.141Z,97705.84
2022-08-23T02:42:12.401Z,97706.09
2022-08-23T02:47:14.156Z,97701.97
2022-08-23T02:52:15.394Z,97688.56
2022-08-23T02:57:16.678Z,97687.53
2022-08-23T03:02:17.966Z,97680.84
2022-08-23T03:07:19.519Z,97679.28
2022-08-23T03:12:20.794Z,97681.81
2022-08-23T03:17:22.065Z,97676.41
2022-08-23T03:22:23.397Z,97680.78
2022-08-23T03:27:25.266Z,97682.56
2022-08-23T03:32:26.551Z,97684.25
2022-08-23T03:37:27.864Z,97679.75
2022-08-23T03:42:31.247Z,97679.88
2022-08-23T03:47:32.635Z,97670.31
2022-08-23T03:52:33.886Z,97674.41
2022-08-23T03:57:35.142Z,97678.63
2022-08-23T04:02:36.454Z,97678.47
2022-08-23T04:07:38.811Z,97679.72
2022-08-23T04:12:40.069Z,97685.53
2022-08-23T04:17:42.521Z,97694.16
2022-08-23T04:22:44.618Z,97692.47
2022-08-23T04:27:49.134Z,97700.69
2022-08-23T04:32:50.677Z,97708.75
2022-08-23T04:37:52.357Z,97711.28
2022-08-23T04:42:53.645Z,97729.00
2022-08-23T04:47:55.094Z,97738.31
2022-08-23T04:52:56.389Z,97749.38
2022-08-23T04:57:57.744Z,97762.25
2022-08-23T05:02:59.042Z,97764.88
2022-08-23T05:08:00.339Z,97775.63
2022-08-23T05:13:01.695Z,97783.72
2022-08-23T05:18:03.086Z,97778.59
2022-08-23T05:23:04.427Z,97780.53
2022-08-23T05:28:05.702Z,97786.78
2022-08-23T05:33:07.095Z,97793.66
2022-08-23T05:38:08.395Z,97793.59
2022-08-23T05:43:09.646Z,97801.53
2022-08-23T05:48:10.897Z,97799.53
2022-08-23T05:53:12.337Z,97806.81
2022-08-23T05:58:13.607Z,97818.28
2022-08-23T06:03:15.021Z,97821.63
2022-08-23T06:08:16.346Z,97811.66
2022-08-23T06:13:17.690Z,97805.19
2022-08-23T06:18:19.537Z,97808.50
2022-08-23T06:23:20.785Z,97806.94
2022-08-23T06:28:25.723Z,97817.72
2022-08-23T06:33:27.600Z,97815.63
2022-08-23T06:38:29.009Z,97829.81
2022-08-23T06:43:30.490Z,97813.44
2022-08-23T06:48:31.761Z,97815.09
2022-08-23T06:53:33.337Z,97820.88
2022-08-23T06:58:34.627Z,97820.75
2022-08-23T07:03:36.536Z,97811.47
2022-08-23T07:08:38.022Z,97813.38
2022-08-23T07:13:39.893Z,97820.09
2022-08-23T07:18:41.161Z,97818.38
2022-08-23T07:23:46.444Z,97822.88
2022-08-23T07:28:47.957Z,97816.41
2022-08-23T07:33:49.327Z,97801.69
2022-08-23T07:38:51.726Z,97798.56
2022-08-23T07:43:53.069Z,97792.94
2022-08-23T07:48:55.139Z,97790.84
2022-08-23T07:53:56.571Z,97791.22
2022-08-23T07:58:57.848Z,97787.22
2022-08-23T08:03:59.133Z,97787.75
2022-08-23T08:09:00.450Z,97782.69
2022-08-23T08:14:01.729Z,97785.44
2022-08-23T08:19:03.282Z,97774.81
2022-08-23T08:24:04.890Z,97779.69
2022-08-23T08:29:06.245Z,97779.13
2022-08-23T08:34:07.822Z,97764.53
2022-08-23T08:39:10.437Z,97758.59
2022-08-23T08:44:15.786Z,97760.03
2022-08-23T08:49:17.644Z,97746.78
2022-08-23T08:54:18.962Z,97751.09
2022-08-23T08:59:20.310Z,97736.16
2022-08-23T09:04:22.544Z,97719.16
2022-08-23T09:09:23.842Z,97709.31
2022-08-23T09:14:25.100Z,97719.34
2022-08-23T09:19:26.349Z,97703.75
2022-08-23T09:24:27.691Z,97700.00
2022-08-23T09:29:33.883Z,97684.81
2022-08-23T09:34:36.315Z,97685.88
2022-08-23T09:39:37.629Z,97675.44
2022-08-23T09:44:39.276Z,97671.03
2022-08-23T09:49:41.324Z,97656.88
2022-08-23T09:54:46.927Z,97645.84
2022-08-23T09:59:51.937Z,97637.97
2022-08-23T10:04:53.276Z,97615.66
2022-08-23T10:09:54.571Z,97613.88
2022-08-23T10:20:32.478Z,97614.00
2022-08-23T10:25:34.279Z,97608.22
2022-08-23T10:30:35.552Z,97584.72
2022-08-23T10:35:37.854Z,97581.56
2022-08-23T10:40:39.434Z,97570.13
2022-08-23T10:45:40.977Z,97568.66
2022-08-23T10:50:44.640Z,97574.38
2022-08-23T10:56:03.335Z,97573.31
2022-08-23T11:01:04.715Z,97571.38
2022-08-23T11:06:06.165Z,97566.19
2022-08-23T11:11:07.456Z,97550.56
2022-08-23T11:16:08.754Z,97562.44
2022-08-23T11:21:10.114Z,97564.06
2022-08-23T11:26:11.437Z,97565.81
2022-08-23T11:31:12.803Z,97551.16
2022-08-23T11:36:16.464Z,97556.53
2022-08-23T11:41:17.850Z,97545.72
2022-08-23T11:46:19.172Z,97571.84
2022-08-23T11:51:21.125Z,97553.91
2022-08-23T11:56:22.409Z,97569.75
2022-08-23T12:01:23.679Z,97565.53
2022-08-23T12:06:26.251Z,97563.09
2022-08-23T12:11:27.518Z,97556.44
2022-08-23T12:16:29.093Z,97556.63
2022-08-23T12:21:30.430Z,97539.63
2022-08-23T12:26:31.709Z,97557.41
2022-08-23T12:31:33.521Z,97555.16
2022-08-23T12:36:34.830Z,97542.53
2022-08-23T12:41:37.541Z,97553.47
2022-08-23T12:46:39.687Z,97557.47
2022-08-23T12:51:41.080Z,97564.38
2022-08-23T12:56:42.366Z,97554.09
2022-08-23T13:01:43.655Z,97546.16
2022-08-23T13:06:45.013Z,97549.16
2022-08-23T13:11:46.437Z,97535.91
2022-08-23T13:16:47.669Z,97515.31
2022-08-23T13:21:52.185Z,97548.00
2022-08-23T13:26:55.738Z,97537.44
2022-08-23T13:32:02.575Z,97546.09
2022-08-23T13:37:04.967Z,97540.53
2022-08-23T13:42:06.313Z,97536.00
2022-08-23T13:47:07.554Z,97544.88
2022-08-23T13:52:45.488Z,97536.41
2022-08-23T13:57:34.228Z,97520.13
2022-08-23T14:02:50.190Z,97499.16
2022-08-23T14:07:53.447Z,97529.63
2022-08-23T14:12:54.822Z,97523.63
2022-08-23T14:17:56.087Z,97509.13
2022-08-23T14:22:57.534Z,97505.63
2022-08-23T14:28:02.507Z,97523.66
2022-08-23T14:33:03.993Z,97524.03
2022-08-23T14:38:11.130Z,97522.78
2022-08-23T14:43:12.531Z,97528.53
2022-08-23T14:48:13.925Z,97516.78
2022-08-23T14:53:15.229Z,97521.75
2022-08-23T14:58:16.549Z,97518.78
2022-08-23T15:03:18.014Z,97531.69
2022-08-23T15:08:19.717Z,97526.91
2022-08-23T15:13:29.810Z,97532.31
2022-08-23T15:18:34.742Z,97533.91
2022-08-23T15:23:36.054Z,97529.41
2022-08-23T15:28:37.362Z,97539.56
2022-08-23T15:33:38.721Z,97544.69
2022-08-23T15:38:40.011Z,97542.56
2022-08-23T15:43:42.133Z,97547.03
2022-08-23T15:48:43.636Z,97551.75
2022-08-23T15:53:44.987Z,97535.88
2022-08-23T15:58:46.275Z,97557.44
2022-08-23T16:03:48.134Z,97547.78
2022-08-23T16:08:49.361Z,97561.44
2022-08-23T16:13:53.670Z,97567.72
2022-08-23T16:18:57.920Z,97578.44
2022-08-23T16:23:59.272Z,97579.59
2022-08-23T16:29:00.549Z,97591.06
2022-08-23T16:34:03.812Z,97599.88
2022-08-23T16:39:05.123Z,97589.06
2022-08-23T16:44:06.396Z,97585.03
2022-08-23T16:49:07.656Z,97597.66
2022-08-23T16:54:08.957Z,97611.03
2022-08-23T16:59:10.221Z,97626.97
2022-08-23T17:04:12.576Z,97643.53
2022-08-23T17:09:13.857Z,97652.16
2022-08-23T17:14:15.247Z,97656.19
2022-08-23T17:19:16.603Z,97659.84
2022-08-23T17:24:18.009Z,97668.72
2022-08-23T17:29:20.333Z,97668.56
2022-08-23T17:34:21.742Z,97678.53
2022-08-23T17:39:23.039Z,97685.97
2022-08-23T17:44:24.334Z,97693.50
2022-08-23T17:49:25.758Z,97703.06
2022-08-23T17:54:27.010Z,97713.81
2022-08-23T17:59:28.303Z,97711.69
2022-08-23T18:04:29.649Z,97723.69
2022-08-23T18:09:30.938Z,97735.34
2022-08-23T18:14:32.211Z,97748.84
2022-08-23T18:19:33.716Z,97758.13
2022-08-23T18:24:35.003Z,97765.53
2022-08-23T18:29:36.267Z,97783.41
2022-08-23T18:34:37.551Z,97791.72
2022-08-23T18:39:38.799Z,97801.34
2022-08-23T18:44:40.061Z,97796.81
2022-08-23T18:49:42.250Z,97802.34
2022-08-23T18:54:43.647Z,97807.97
2022-08-23T18:59:44.943Z,97812.75
2022-08-23T19:04:46.269Z,97827.19
2022-08-23T19:09:47.627Z,97841.13
2022-08-23T19:14:48.974Z,97851.22
2022-08-23T19:19:50.622Z,97856.22
2022-08-23T19:24:51.901Z,97861.22
2022-08-23T19:29:53.801Z,97875.91
2022-08-23T19:34:55.061Z,97872.56
2022-08-23T19:39:56.345Z,97889.47
2022-08-23T19:44:57.734Z,97894.25
2022-08-23T19:49:58.993Z,97907.06
2022-08-23T19:55:05.260Z,97911.53
2022-08-23T20:00:10.405Z,97925.19
2022-08-23T20:05:11.659Z,97927.47
2022-08-23T20:10:12.959Z,97931.75
2022-08-23T20:15:14.463Z,97935.34
2022-08-23T20:20:15.729Z,97943.75
2022-08-23T20:25:17.092Z,97957.28
2022-08-23T20:30:18.523Z,97958.38
2022-08-23T20:35:19.819Z,97962.25
2022-08-23T20:40:21.921Z,97963.41
2022-08-23T20:45:23.629Z,97958.75
2022-08-23T20:50:25.438Z,97970.22
2022-08-23T20:55:28.218Z,97972.03
2022-08-23T21:00:29.484Z,97974.44
2022-08-23T21:05:30.737Z,97980.22
2022-08-23T21:10:32.015Z,97979.78
2022-08-23T21:15:33.301Z,97980.94
2022-08-23T21:20:34.566Z,97984.59
2022-08-23T21:25:35.843Z,97980.84
2022-08-23T21:30:37.099Z,97992.59
2022-08-23T21:35:38.372Z,97999.38
2022-08-23T21:40:39.618Z,98001.84
2022-08-23T21:45:41.732Z,97997.19
2022-08-23T21:50:45.200Z,97990.78
2022-08-23T21:55:46.571Z,97998.06
2022-08-23T22:00:47.898Z,97988.81
2022-08-23T22:05:49.216Z,97986.06
2022-08-23T22:10:52.198Z,97992.06
2022-08-23T22:16:01.368Z,97995.25
2022-08-23T22:21:05.406Z,97994.13
2022-08-23T22:26:09.493Z,98001.53
2022-08-23T22:31:12.886Z,97998.78
2022-08-23T22:36:14.225Z,97987.88
2022-08-23T22:41:15.664Z,97991.69
2022-08-23T22:46:16.993Z,97986.44
2022-08-23T22:51:18.377Z,97999.19
2022-08-23T22:56:19.985Z,98001.16
2022-08-23T23:01:21.835Z,97998.19
2022-08-23T23:06:23.877Z,97981.75
2022-08-23T23:11:25.122Z,97979.94
2022-08-23T23:16:26.445Z,97979.13
2022-08-23T23:21:27.769Z,97984.16
2022-08-23T23:26:29.522Z,97975.63
2022-08-23T23:31:30.779Z,97976.84
2022-08-23T23:36:32.089Z,97979.78
2022-08-23T23:41:33.374Z,97976.47
2022-08-23T23:46:35.846Z,97971.25
2022-08-23T23:51:37.394Z,97973.31
2022-08-23T23:56:38.846Z,97971.63
